Time;durP1;ratioP1;P1;durP2;ratioP2;P2;SDS_P1;SDS_P2;PMS_P1;PMS_P2;Temp;Humidity;BMP_temperature;BMP_pressure;BME280_temperature;BME280_humidity;BME280_pressure;Samples;Min_cycle;Max_cycle;Signal;HPM_P1;HPM_P2
2022/05/12 00:00:13;;;;;;;7.40;6.47;;;;;;;;;;4912361;29;20112;-79
2022/05/12 00:02:40;;;;;;;6.75;6.15;;;;;;;;;;4895508;29;20228;-79
2022/05/12 00:05:08;;;;;;;8.00;7.15;;;;;;;;;;4912338;29;20127;-78
2022/05/12 00:07:36;;;;;;;8.07;6.47;;;;;;;;;;4914463;29;20130;-79
2022/05/12 00:10:04;;;;;;;6.78;6.28;;;;;;;;;;4912288;29;20498;-79
2022/05/12 00:12:31;;;;;;;6.75;6.15;;;;;;;;;;4910341;29;20055;-78
2022/05/12 00:14:59;;;;;;;7.78;6.18;;;;;;;;;;4912117;29;20054;-79
2022/05/12 00:17:26;;;;;;;6.88;6.38;;;;;;;;;;4911993;29;20047;-79
2022/05/12 00:19:53;;;;;;;6.47;5.97;;;;;;;;;;4909499;29;20431;-79
2022/05/12 00:22:20;;;;;;;7.93;6.40;;;;;;;;;;4897376;29;20119;-79
2022/05/12 00:24:48;;;;;;;7.80;5.82;;;;;;;;;;4912717;29;20048;-79
2022/05/12 00:27:15;;;;;;;6.28;5.78;;;;;;;;;;4914953;29;20043;-79
2022/05/12 00:29:42;;;;;;;6.32;5.82;;;;;;;;;;4895600;29;20036;-79
2022/05/12 00:32:10;;;;;;;6.55;6.00;;;;;;;;;;4881884;29;20076;-79
2022/05/12 00:34:37;;;;;;;6.63;6.03;;;;;;;;;;4912125;29;20040;-79
2022/05/12 00:37:04;;;;;;;6.30;5.80;;;;;;;;;;4914607;29;20100;-79
2022/05/12 00:39:32;;;;;;;6.57;5.50;;;;;;;;;;4912351;29;20044;-78
2022/05/12 00:41:59;;;;;;;9.23;6.35;;;;;;;;;;4911868;29;20048;-79
2022/05/12 00:44:26;;;;;;;7.03;5.82;;;;;;;;;;4909280;29;20088;-79
2022/05/12 00:46:53;;;;;;;6.63;6.03;;;;;;;;;;4911591;29;20040;-79
2022/05/12 00:49:24;;;;;;;9.10;6.28;;;;;;;;;;4895419;29;20048;-79
2022/05/12 00:51:56;;;;;;;6.85;6.25;;;;;;;;;;4894114;29;20347;-78
2022/05/12 00:54:44;;;;;;;6.65;5.88;;;;;;;;;;4912737;29;20040;-78
2022/05/12 00:57:13;;;;;;;8.57;6.25;;;;;;;;;;4893950;29;20569;-79
2022/05/12 00:59:41;;;;;;;7.10;6.43;;;;;;;;;;4910026;29;20533;-79
2022/05/12 01:02:11;;;;;;;7.10;6.40;;;;;;;;;;4911275;29;20051;-79
2022/05/12 01:04:39;;;;;;;8.20;6.90;;;;;;;;;;4911767;29;20116;-78
2022/05/12 01:07:06;;;;;;;7.43;6.68;;;;;;;;;;4912745;29;20181;-79
2022/05/12 01:09:33;;;;;;;6.70;6.13;;;;;;;;;;4910515;29;20529;-78
2022/05/12 01:12:02;;;;;;;7.43;6.82;;;;;;;;;;4913811;29;20421;-79
2022/05/12 01:14:29;;;;;;;7.47;6.88;;;;;;;;;;4911481;29;20048;-79
2022/05/12 01:17:00;;;;;;;6.85;6.25;;;;;;;;;;4912976;29;20064;-78
2022/05/12 01:19:32;;;;;;;7.35;6.68;;;;;;;;;;4893257;29;20048;-78
2022/05/12 01:22:00;;;;;;;7.63;6.72;;;;;;;;;;4909020;29;20044;-77
2022/05/12 01:24:32;;;;;;;7.30;6.53;;;;;;;;;;4912098;29;20036;-78
2022/05/12 01:27:18;;;;;;;7.20;6.30;;;;;;;;;;4913552;29;20643;-77
2022/05/12 01:29:50;;;;;;;7.32;6.63;;;;;;;;;;4896687;29;20104;-78
2022/05/12 01:32:19;;;;;;;7.13;6.50;;;;;;;;;;4913120;29;20394;-78
2022/05/12 01:34:46;;;;;;;12.32;6.50;;;;;;;;;;4914634;29;20051;-78
2022/05/12 01:37:13;;;;;;;7.35;6.72;;;;;;;;;;4897859;29;20253;-78
2022/05/12 01:39:41;;;;;;;7.10;6.50;;;;;;;;;;4881825;29;20044;-78
2022/05/12 01:42:09;;;;;;;6.88;6.28;;;;;;;;;;4914157;29;20048;-78
2022/05/12 01:44:37;;;;;;;7.03;6.43;;;;;;;;;;4911020;29;20520;-78
2022/05/12 01:47:05;;;;;;;8.85;7.07;;;;;;;;;;4897339;29;20044;-78
2022/05/12 01:49:32;;;;;;;6.65;6.05;;;;;;;;;;4910327;29;20043;-77
2022/05/12 01:52:00;;;;;;;7.50;6.22;;;;;;;;;;4912847;29;20044;-78
2022/05/12 01:54:28;;;;;;;6.78;6.13;;;;;;;;;;4913547;29;20510;-78
2022/05/12 01:56:56;;;;;;;6.40;5.90;;;;;;;;;;4914828;29;20379;-77
2022/05/12 01:59:24;;;;;;;6.53;6.03;;;;;;;;;;4913483;29;20541;-78
2022/05/12 02:01:52;;;;;;;6.28;5.75;;;;;;;;;;4889256;29;20047;-78
2022/05/12 02:04:20;;;;;;;6.93;6.25;;;;;;;;;;4895788;29;20100;-78
2022/05/12 02:06:47;;;;;;;7.68;6.93;;;;;;;;;;4896266;29;20050;-78
2022/05/12 02:09:16;;;;;;;6.30;5.70;;;;;;;;;;4911581;29;20037;-78
2022/05/12 02:11:44;;;;;;;6.82;6.30;;;;;;;;;;4910592;29;20051;-78
2022/05/12 02:14:11;;;;;;;6.28;5.38;;;;;;;;;;4913091;29;20044;-78
2022/05/12 02:16:39;;;;;;;6.78;5.90;;;;;;;;;;4916051;29;20043;-78
2022/05/12 02:19:07;;;;;;;6.65;6.00;;;;;;;;;;4914680;29;20040;-78
2022/05/12 02:21:35;;;;;;;7.78;6.60;;;;;;;;;;4914116;29;20556;-78
2022/05/12 02:24:03;;;;;;;6.35;5.75;;;;;;;;;;4896942;29;20039;-78
2022/05/12 02:26:31;;;;;;;7.10;6.40;;;;;;;;;;4916482;29;20048;-78
2022/05/12 02:28:58;;;;;;;7.47;6.80;;;;;;;;;;4913863;29;20039;-78
2022/05/12 02:31:26;;;;;;;8.13;7.03;;;;;;;;;;4916572;29;20059;-79
2022/05/12 02:33:53;;;;;;;7.60;6.40;;;;;;;;;;4894374;29;20044;-78
2022/05/12 02:36:20;;;;;;;7.60;6.63;;;;;;;;;;4898626;29;20036;-79
2022/05/12 02:38:48;;;;;;;7.03;6.25;;;;;;;;;;4894657;29;20506;-77
2022/05/12 02:41:15;;;;;;;6.60;6.00;;;;;;;;;;4902811;29;20059;-78
2022/05/12 02:43:42;;;;;;;7.20;5.78;;;;;;;;;;4908467;29;20059;-78
2022/05/12 02:46:11;;;;;;;6.90;6.22;;;;;;;;;;4908781;29;20571;-78
2022/05/12 02:48:43;;;;;;;6.63;6.07;;;;;;;;;;4892217;29;20040;-78
2022/05/12 02:51:11;;;;;;;7.35;6.75;;;;;;;;;;4920346;29;20047;-78
2022/05/12 02:53:39;;;;;;;7.28;6.57;;;;;;;;;;4913840;29;20052;-78
2022/05/12 02:56:07;;;;;;;6.60;6.00;;;;;;;;;;4922732;29;20055;-78
2022/05/12 02:58:35;;;;;;;8.55;6.07;;;;;;;;;;4882229;29;20056;-79
2022/05/12 03:01:02;;;;;;;9.07;6.15;;;;;;;;;;4920212;29;20099;-78
2022/05/12 03:03:29;;;;;;;6.55;5.90;;;;;;;;;;4926197;29;20574;-78
2022/05/12 03:05:57;;;;;;;6.28;5.78;;;;;;;;;;4915472;29;20051;-78
2022/05/12 03:08:24;;;;;;;7.10;6.40;;;;;;;;;;4912804;29;20119;-78
2022/05/12 03:10:52;;;;;;;7.28;6.57;;;;;;;;;;4902671;29;20067;-78
2022/05/12 03:13:19;;;;;;;8.43;7.53;;;;;;;;;;4933447;29;20047;-78
2022/05/12 03:15:48;;;;;;;11.57;7.50;;;;;;;;;;4928101;29;20772;-82
2022/05/12 03:18:15;;;;;;;10.40;7.82;;;;;;;;;;4906072;29;20051;-78
2022/05/12 03:20:43;;;;;;;9.18;8.18;;;;;;;;;;4917137;29;20048;-78
2022/05/12 03:23:10;;;;;;;9.43;8.35;;;;;;;;;;4932535;29;20593;-78
2022/05/12 03:25:37;;;;;;;15.27;8.80;;;;;;;;;;4913628;29;20040;-78
2022/05/12 03:28:05;;;;;;;9.57;7.88;;;;;;;;;;4912545;29;20036;-78
2022/05/12 03:30:32;;;;;;;12.57;8.75;;;;;;;;;;4908465;29;20501;-77
2022/05/12 03:32:59;;;;;;;12.18;8.52;;;;;;;;;;4910523;29;20480;-78
2022/05/12 03:35:27;;;;;;;8.82;7.90;;;;;;;;;;4898028;29;20417;-79
2022/05/12 03:37:54;;;;;;;8.93;8.00;;;;;;;;;;4917784;29;20491;-79
2022/05/12 03:40:21;;;;;;;10.50;8.73;;;;;;;;;;4911930;29;20126;-77
2022/05/12 03:42:50;;;;;;;10.07;8.68;;;;;;;;;;4912906;29;20052;-78
2022/05/12 03:45:18;;;;;;;13.82;9.45;;;;;;;;;;4909128;29;20051;-79
2022/05/12 03:47:48;;;;;;;11.30;7.72;;;;;;;;;;4894762;29;20040;-79
2022/05/12 03:50:18;;;;;;;9.15;8.05;;;;;;;;;;4914408;29;20706;-78
2022/05/12 03:52:47;;;;;;;9.15;8.23;;;;;;;;;;4925610;29;20044;-79
2022/05/12 03:55:16;;;;;;;9.55;8.02;;;;;;;;;;4900304;29;20070;-79
2022/05/12 03:57:44;;;;;;;9.55;7.30;;;;;;;;;;4909196;29;20059;-77
2022/05/12 04:00:13;;;;;;;8.27;6.78;;;;;;;;;;4908606;29;20047;-78
2022/05/12 04:02:40;;;;;;;13.10;7.22;;;;;;;;;;4901477;29;20044;-78
2022/05/12 04:05:08;;;;;;;7.30;6.60;;;;;;;;;;4892485;29;20039;-78
2022/05/12 04:07:40;;;;;;;21.40;9.20;;;;;;;;;;4909666;29;20087;-78
2022/05/12 04:10:08;;;;;;;8.13;7.28;;;;;;;;;;4909319;29;20050;-78
2022/05/12 04:12:35;;;;;;;7.68;6.88;;;;;;;;;;4931388;29;20049;-78
2022/05/12 04:15:02;;;;;;;27.73;10.90;;;;;;;;;;4913293;29;20119;-78
2022/05/12 04:17:30;;;;;;;14.75;8.88;;;;;;;;;;4917861;29;20055;-79
2022/05/12 04:20:01;;;;;;;9.45;8.15;;;;;;;;;;4911254;29;20143;-79
2022/05/12 04:22:28;;;;;;;10.82;8.90;;;;;;;;;;4913054;29;20135;-78
2022/05/12 04:24:56;;;;;;;7.95;7.10;;;;;;;;;;4911754;29;20107;-78
2022/05/12 04:27:23;;;;;;;8.95;8.10;;;;;;;;;;4907690;29;20117;-78
2022/05/12 04:29:50;;;;;;;8.65;7.82;;;;;;;;;;4910128;29;20044;-79
2022/05/12 04:32:18;;;;;;;10.30;9.02;;;;;;;;;;4910138;29;20531;-79
2022/05/12 04:37:33;;;;;;;12.18;9.15;;;;;;;;;;4916981;29;20418;-78
2022/05/12 04:40:15;;;;;;;10.25;9.00;;;;;;;;;;4912029;29;20694;-78
2022/05/12 04:42:43;;;;;;;12.98;9.50;;;;;;;;;;4914263;29;20055;-78
2022/05/12 04:45:11;;;;;;;9.70;8.70;;;;;;;;;;4927571;29;20588;-78
2022/05/12 04:47:41;;;;;;;11.85;9.20;;;;;;;;;;4911886;29;20047;-77
2022/05/12 04:50:09;;;;;;;9.65;8.40;;;;;;;;;;4911731;29;20043;-78
2022/05/12 04:52:36;;;;;;;12.23;9.90;;;;;;;;;;4912880;29;20139;-77
2022/05/12 04:55:04;;;;;;;12.70;9.23;;;;;;;;;;4892615;29;20395;-77
2022/05/12 04:57:36;;;;;;;11.32;8.50;;;;;;;;;;4895138;29;20049;-77
2022/05/12 05:00:04;;;;;;;9.30;8.30;;;;;;;;;;4913891;29;20044;-78
2022/05/12 05:02:31;;;;;;;9.52;8.52;;;;;;;;;;4900339;29;20394;-77
2022/05/12 05:04:59;;;;;;;9.48;8.48;;;;;;;;;;4914656;29;20044;-77
2022/05/12 05:07:26;;;;;;;9.52;8.52;;;;;;;;;;4896590;29;20069;-78
2022/05/12 05:09:54;;;;;;;8.85;7.63;;;;;;;;;;4911906;29;20052;-78
2022/05/12 05:12:21;;;;;;;9.00;8.10;;;;;;;;;;4912675;29;20051;-78
2022/05/12 05:14:49;;;;;;;8.02;7.22;;;;;;;;;;4900130;29;20052;-79
2022/05/12 05:17:16;;;;;;;8.23;7.30;;;;;;;;;;4909658;29;20059;-77
2022/05/12 05:19:44;;;;;;;9.63;7.40;;;;;;;;;;4907598;29;20117;-81
2022/05/12 05:22:11;;;;;;;8.38;7.53;;;;;;;;;;4910475;29;20052;-78
2022/05/12 05:24:42;;;;;;;13.05;7.78;;;;;;;;;;4910148;29;20040;-78
2022/05/12 05:27:10;;;;;;;9.63;7.45;;;;;;;;;;4910157;29;20135;-77
2022/05/12 05:29:41;;;;;;;7.80;7.00;;;;;;;;;;4914305;29;20048;-79
2022/05/12 05:32:12;;;;;;;7.18;6.57;;;;;;;;;;4916217;29;20080;-87
2022/05/12 05:34:40;;;;;;;7.38;6.65;;;;;;;;;;4915340;29;20047;-79
2022/05/12 05:37:07;;;;;;;7.82;6.50;;;;;;;;;;4915278;29;20044;-78
2022/05/12 05:39:35;;;;;;;8.45;6.85;;;;;;;;;;4891043;29;20059;-79
2022/05/12 05:42:05;;;;;;;8.68;6.55;;;;;;;;;;4916160;29;20054;-79
2022/05/12 05:44:33;;;;;;;7.93;6.45;;;;;;;;;;4914338;29;20032;-81
2022/05/12 05:47:01;;;;;;;7.00;6.35;;;;;;;;;;4891927;29;20055;-79
2022/05/12 05:49:29;;;;;;;9.43;6.60;;;;;;;;;;4914991;29;20052;-79
2022/05/12 05:54:45;;;;;;;8.70;7.78;;;;;;;;;;4907603;29;20047;-79
2022/05/12 05:57:13;;;;;;;6.78;6.15;;;;;;;;;;4917572;29;20268;-77
2022/05/12 05:59:40;;;;;;;7.10;6.40;;;;;;;;;;4913683;29;20051;-77
2022/05/12 06:02:07;;;;;;;8.85;6.63;;;;;;;;;;4912788;29;20040;-80
2022/05/12 06:04:35;;;;;;;7.13;6.43;;;;;;;;;;4913237;29;20150;-78
2022/05/12 06:07:02;;;;;;;7.90;6.82;;;;;;;;;;4906824;29;20147;-78
2022/05/12 06:09:29;;;;;;;7.82;7.05;;;;;;;;;;4910164;29;20414;-76
2022/05/12 06:11:57;;;;;;;7.85;6.68;;;;;;;;;;4921546;29;20048;-77
2022/05/12 06:14:24;;;;;;;9.07;6.30;;;;;;;;;;4904341;29;20071;-78
2022/05/12 06:16:52;;;;;;;8.27;7.32;;;;;;;;;;4913522;29;20438;-77
2022/05/12 06:19:19;;;;;;;7.45;6.70;;;;;;;;;;4902007;29;20546;-77
2022/05/12 06:21:47;;;;;;;7.95;6.40;;;;;;;;;;4898979;29;20671;-78
2022/05/12 06:24:14;;;;;;;10.00;5.95;;;;;;;;;;4906131;29;20095;-78
2022/05/12 06:26:41;;;;;;;6.78;6.07;;;;;;;;;;4917525;29;20051;-79
2022/05/12 06:29:15;;;;;;;9.40;7.07;;;;;;;;;;4913493;29;20194;-78
2022/05/12 06:31:42;;;;;;;7.97;7.18;;;;;;;;;;4897532;29;20103;-77
2022/05/12 06:34:10;;;;;;;8.70;6.85;;;;;;;;;;4899648;29;20064;-78
2022/05/12 06:36:37;;;;;;;7.20;6.40;;;;;;;;;;4897574;29;20056;-78
2022/05/12 06:39:05;;;;;;;7.53;6.93;;;;;;;;;;4912985;29;20502;-78
2022/05/12 06:41:34;;;;;;;7.05;6.45;;;;;;;;;;4909685;29;20050;-78
2022/05/12 06:44:02;;;;;;;6.88;5.65;;;;;;;;;;4912615;29;20158;-78
2022/05/12 06:46:30;;;;;;;7.85;6.85;;;;;;;;;;4902363;29;20047;-77
2022/05/12 06:48:58;;;;;;;7.13;6.57;;;;;;;;;;4912090;29;20422;-79
2022/05/12 06:51:28;;;;;;;7.63;7.03;;;;;;;;;;4922943;29;20134;-78
2022/05/12 06:53:56;;;;;;;8.82;7.22;;;;;;;;;;4917504;29;20115;-79
2022/05/12 06:56:23;;;;;;;7.45;6.63;;;;;;;;;;4916650;29;20154;-78
2022/05/12 06:58:51;;;;;;;6.38;5.88;;;;;;;;;;4914393;29;20040;-78
2022/05/12 07:01:21;;;;;;;6.75;6.25;;;;;;;;;;4899021;29;20074;-79
2022/05/12 07:03:48;;;;;;;7.28;6.57;;;;;;;;;;4913432;29;20051;-78
2022/05/12 07:06:16;;;;;;;6.95;6.22;;;;;;;;;;4916583;29;20047;-79
2022/05/12 07:08:44;;;;;;;7.00;6.30;;;;;;;;;;4913707;29;20036;-79
2022/05/12 07:11:11;;;;;;;7.38;5.88;;;;;;;;;;4914638;29;20036;-79
2022/05/12 07:13:39;;;;;;;8.52;6.60;;;;;;;;;;4916112;29;20043;-79
2022/05/12 07:16:07;;;;;;;7.85;6.50;;;;;;;;;;4897357;29;20040;-80
2022/05/12 07:18:35;;;;;;;6.30;5.68;;;;;;;;;;4894962;29;20167;-79
2022/05/12 07:26:52;;;;;;;8.48;5.40;;;;;;;;;;4914144;29;20047;-80
2022/05/12 07:29:24;;;;;;;9.15;5.20;;;;;;;;;;4912210;29;20056;-79
2022/05/12 07:31:52;;;;;;;5.88;5.00;;;;;;;;;;4914296;29;20052;-79
2022/05/12 07:34:23;;;;;;;7.30;4.70;;;;;;;;;;4912781;29;20413;-83
2022/05/12 07:36:54;;;;;;;4.60;4.20;;;;;;;;;;4898109;29;20047;-78
2022/05/12 07:39:29;;;;;;;4.78;3.95;;;;;;;;;;4896204;29;20067;-83
2022/05/12 07:41:57;;;;;;;4.20;3.80;;;;;;;;;;4915528;29;20040;-79
2022/05/12 07:44:32;;;;;;;4.03;3.72;;;;;;;;;;4915519;29;20056;-78
2022/05/12 07:47:00;;;;;;;6.60;3.47;;;;;;;;;;4926076;29;20046;-79
2022/05/12 07:49:29;;;;;;;6.50;2.92;;;;;;;;;;4904221;29;20048;-80
2022/05/12 07:51:57;;;;;;;5.20;2.70;;;;;;;;;;4980188;23;20146;-82
2022/05/12 07:54:24;;;;;;;6.82;3.10;;;;;;;;;;4932819;29;20763;-80
2022/05/12 07:56:51;;;;;;;3.30;2.80;;;;;;;;;;4941144;29;20054;-81
2022/05/12 07:59:19;;;;;;;12.63;2.85;;;;;;;;;;4940478;29;20056;-80
2022/05/12 08:01:47;;;;;;;13.10;3.05;;;;;;;;;;4915774;29;20059;-80
2022/05/12 08:04:14;;;;;;;3.58;2.97;;;;;;;;;;4934969;29;20058;-81
2022/05/12 08:06:43;;;;;;;6.90;2.97;;;;;;;;;;4919752;29;20040;-80
2022/05/12 08:09:12;;;;;;;5.95;2.70;;;;;;;;;;4931651;29;20036;-81
2022/05/12 08:11:39;;;;;;;4.03;2.80;;;;;;;;;;4923864;29;20554;-83
2022/05/12 08:14:10;;;;;;;3.83;2.38;;;;;;;;;;4903399;29;20056;-81
2022/05/12 08:16:38;;;;;;;9.77;2.50;;;;;;;;;;4922469;29;20143;-81
2022/05/12 08:19:06;;;;;;;9.07;2.58;;;;;;;;;;4916958;29;20039;-82
2022/05/12 08:21:33;;;;;;;5.32;2.10;;;;;;;;;;4903503;29;20082;-82
2022/05/12 08:24:00;;;;;;;8.35;2.67;;;;;;;;;;4920484;29;20048;-81
2022/05/12 08:26:30;;;;;;;2.90;2.67;;;;;;;;;;4938066;29;20050;-80
2022/05/12 08:28:57;;;;;;;3.47;2.38;;;;;;;;;;4917250;29;20050;-80
2022/05/12 08:31:29;;;;;;;6.63;2.50;;;;;;;;;;4920844;29;20047;-80
2022/05/12 08:33:58;;;;;;;5.72;2.38;;;;;;;;;;4919663;29;20098;-81
2022/05/12 08:36:27;;;;;;;7.97;2.28;;;;;;;;;;4904038;29;20060;-81
2022/05/12 08:38:56;;;;;;;5.43;2.25;;;;;;;;;;4922818;29;20040;-80
2022/05/12 08:41:32;;;;;;;4.50;2.42;;;;;;;;;;4922029;29;20118;-82
2022/05/12 08:44:08;;;;;;;4.22;2.25;;;;;;;;;;4938535;29;20107;-81
2022/05/12 08:46:40;;;;;;;5.32;1.80;;;;;;;;;;4921605;29;20146;-81
2022/05/12 08:49:17;;;;;;;4.68;2.38;;;;;;;;;;4939614;29;20050;-81
2022/05/12 08:51:47;;;;;;;8.40;2.15;;;;;;;;;;4939598;29;20126;-82
2022/05/12 08:54:18;;;;;;;4.13;2.30;;;;;;;;;;4921045;29;20052;-82
2022/05/12 08:56:46;;;;;;;4.32;2.10;;;;;;;;;;4939295;29;20501;-80
2022/05/12 08:59:14;;;;;;;2.58;1.55;;;;;;;;;;4922300;29;20059;-82
2022/05/12 09:01:55;;;;;;;6.72;1.90;;;;;;;;;;4924616;29;20154;-81
2022/05/12 09:04:23;;;;;;;;;;;;;;;;;;4923418;29;20127;-81
2022/05/12 09:06:59;;;;;;;2.53;1.88;;;;;;;;;;4939910;29;20258;-81
2022/05/12 09:09:30;;;;;;;2.17;1.80;;;;;;;;;;4943979;29;20470;-83
2022/05/12 09:12:05;;;;;;;3.60;1.98;;;;;;;;;;4937561;29;20106;-82
2022/05/12 09:14:56;;;;;;;4.28;1.77;;;;;;;;;;4923646;29;20142;-81
2022/05/12 09:17:27;;;;;;;6.65;2.40;;;;;;;;;;4939694;29;20051;-82
2022/05/12 09:19:54;;;;;;;2.20;2.00;;;;;;;;;;4947341;29;20044;-82
2022/05/12 09:22:25;;;;;;;5.97;2.40;;;;;;;;;;4939413;29;20047;-81
2022/05/12 09:24:53;;;;;;;2.30;2.05;;;;;;;;;;4956217;29;20245;-81
2022/05/12 09:27:27;;;;;;;4.30;1.90;;;;;;;;;;4922868;29;20071;-81
2022/05/12 09:29:54;;;;;;;4.05;2.15;;;;;;;;;;4922277;29;20048;-81
2022/05/12 09:32:23;;;;;;;5.50;1.98;;;;;;;;;;4943625;29;20056;-81
2022/05/12 09:35:06;;;;;;;3.35;1.85;;;;;;;;;;4952903;29;20078;-81
2022/05/12 09:37:36;;;;;;;4.20;1.98;;;;;;;;;;4951406;29;20047;-80
2022/05/12 09:40:18;;;;;;;2.10;1.90;;;;;;;;;;4925306;29;20056;-82
2022/05/12 09:42:47;;;;;;;3.55;1.95;;;;;;;;;;4937829;29;20070;-81
2022/05/12 09:45:29;;;;;;;2.50;1.90;;;;;;;;;;4942214;29;20055;-82
2022/05/12 09:48:21;;;;;;;1.92;1.70;;;;;;;;;;4926358;29;20043;-82
2022/05/12 09:50:48;;;;;;;5.90;2.05;;;;;;;;;;4935205;29;20047;-81
2022/05/12 09:53:24;;;;;;;2.97;2.08;;;;;;;;;;4938269;29;20063;-81
2022/05/12 09:56:04;;;;;;;5.30;2.10;;;;;;;;;;4936234;29;20415;-81
2022/05/12 09:58:35;;;;;;;6.30;2.17;;;;;;;;;;4922463;29;20143;-82
2022/05/12 10:01:11;;;;;;;6.00;2.28;;;;;;;;;;4916449;29;20050;-81
2022/05/12 10:09:20;;;;;;;2.50;2.17;;;;;;;;;;4920406;29;20047;-82
2022/05/12 10:12:08;;;;;;;2.08;1.83;;;;;;;;;;4920478;29;20106;-81
2022/05/12 10:14:39;;;;;;;2.10;2.00;;;;;;;;;;4937963;29;20111;-82
2022/05/12 10:17:10;;;;;;;4.95;2.08;;;;;;;;;;4920324;29;20590;-82
2022/05/12 10:19:37;;;;;;;;;;;;;;;;;;4939883;29;20048;-80
2022/05/12 10:22:14;;;;;;;2.60;2.00;;;;;;;;;;4939697;29;19922;-82
2022/05/12 10:24:50;;;;;;;2.60;1.95;;;;;;;;;;4919359;29;20059;-82
2022/05/12 10:27:27;;;;;;;3.50;2.20;;;;;;;;;;4922050;29;20672;-82
2022/05/12 10:30:15;;;;;;;7.95;2.53;;;;;;;;;;4920718;29;20509;-80
2022/05/12 10:32:58;;;;;;;6.60;3.25;;;;;;;;;;4928718;29;20074;-81
2022/05/12 10:35:42;;;;;;;4.63;2.30;;;;;;;;;;4931294;29;20126;-81
2022/05/12 10:38:19;;;;;;;2.30;2.10;;;;;;;;;;4909571;29;20243;-83
2022/05/12 10:40:52;;;;;;;2.33;2.20;;;;;;;;;;4942083;29;20070;-82
2022/05/12 10:43:23;;;;;;;5.38;2.65;;;;;;;;;;4919670;29;20059;-83
2022/05/12 10:46:02;;;;;;;5.18;2.22;;;;;;;;;;4924283;29;20063;-81
2022/05/12 10:48:34;;;;;;;8.63;2.33;;;;;;;;;;4932295;29;20043;-82
2022/05/12 10:51:06;;;;;;;4.25;2.45;;;;;;;;;;4943098;28;20062;-82
2022/05/12 10:53:57;;;;;;;3.03;2.22;;;;;;;;;;4952194;29;20427;-82
2022/05/12 10:56:31;;;;;;;4.40;2.47;;;;;;;;;;4905895;29;20466;-81
2022/05/12 10:59:02;;;;;;;4.78;2.03;;;;;;;;;;4918375;29;20043;-82
2022/05/12 11:01:35;;;;;;;3.80;2.22;;;;;;;;;;4937916;29;20058;-82
2022/05/12 11:04:17;;;;;;;2.55;2.35;;;;;;;;;;4922300;29;20050;-81
2022/05/12 11:06:47;;;;;;;8.23;3.78;;;;;;;;;;4934627;29;20047;-82
2022/05/12 11:09:29;;;;;;;4.03;2.25;;;;;;;;;;4942556;29;20087;-82
2022/05/12 11:11:58;;;;;;;8.95;2.53;;;;;;;;;;4936025;29;20043;-82
2022/05/12 11:14:33;;;;;;;4.10;2.50;;;;;;;;;;4937824;29;20269;-81
2022/05/12 11:17:09;;;;;;;6.05;1.98;;;;;;;;;;4922651;29;20075;-82
2022/05/12 11:19:38;;;;;;;3.65;2.20;;;;;;;;;;4920474;29;20150;-82
2022/05/12 11:22:08;;;;;;;7.70;2.10;;;;;;;;;;4938447;29;20074;-82
2022/05/12 11:24:41;;;;;;;2.13;2.03;;;;;;;;;;4920096;29;20052;-81
2022/05/12 11:27:11;;;;;;;3.20;2.00;;;;;;;;;;4920709;29;20306;-82
2022/05/12 11:29:57;;;;;;;4.05;2.08;;;;;;;;;;4925999;29;20043;-82
2022/05/12 11:32:34;;;;;;;2.70;1.77;;;;;;;;;;4944110;29;20536;-83
2022/05/12 11:35:04;;;;;;;6.97;2.40;;;;;;;;;;4915221;29;20485;-82
2022/05/12 11:37:43;;;;;;;3.90;2.08;;;;;;;;;;4913997;29;20097;-82
2022/05/12 11:40:34;;;;;;;4.68;2.25;;;;;;;;;;4935514;29;20035;-82
2022/05/12 11:46:14;;;;;;;2.72;2.33;;;;;;;;;;4933299;29;20158;-81
2022/05/12 11:48:47;;;;;;;2.97;2.30;;;;;;;;;;4916554;29;20054;-82
2022/05/12 11:51:33;;;;;;;3.72;2.05;;;;;;;;;;4935872;29;20063;-83
2022/05/12 11:54:03;;;;;;;2.47;2.20;;;;;;;;;;4905421;29;20047;-83
2022/05/12 11:56:45;;;;;;;3.93;2.63;;;;;;;;;;4933668;29;20142;-81
2022/05/12 11:59:19;;;;;;;3.90;2.60;;;;;;;;;;4937593;29;20303;-81
2022/05/12 12:01:47;;;;;;;3.67;2.05;;;;;;;;;;4936667;29;20047;-82
2022/05/12 12:04:15;;;;;;;3.83;2.17;;;;;;;;;;4936296;29;20043;-84
2022/05/12 12:06:45;;;;;;;3.65;3.00;;;;;;;;;;4933709;29;20052;-81
2022/05/12 12:09:27;;;;;;;4.80;2.43;;;;;;;;;;4899734;29;20044;-82
2022/05/12 12:11:55;;;;;;;3.63;2.38;;;;;;;;;;4936395;29;20043;-82
2022/05/12 12:14:41;;;;;;;5.78;2.20;;;;;;;;;;4937172;29;20048;-81
2022/05/12 12:17:11;;;;;;;3.30;2.40;;;;;;;;;;4917082;29;20783;-81
2022/05/12 12:19:41;;;;;;;3.88;2.08;;;;;;;;;;4903569;29;20071;-80
2022/05/12 12:22:38;;;;;;;2.40;2.20;;;;;;;;;;4925266;29;20544;-82
2022/05/12 12:25:05;;;;;;;2.35;2.15;;;;;;;;;;4910217;29;20064;-81
2022/05/12 12:27:56;;;;;;;4.82;2.20;;;;;;;;;;4914217;29;20055;-82
2022/05/12 12:30:33;;;;;;;3.35;2.88;;;;;;;;;;4892177;29;20141;-81
2022/05/12 12:33:07;;;;;;;3.33;2.22;;;;;;;;;;4919611;29;20169;-83
2022/05/12 12:35:53;;;;;;;2.20;2.10;;;;;;;;;;4918194;29;20112;-82
2022/05/12 12:38:39;;;;;;;11.30;2.30;;;;;;;;;;4917302;29;20075;-83
2022/05/12 12:41:07;;;;;;;1.90;1.80;;;;;;;;;;4925953;29;20043;-82
2022/05/12 12:43:40;;;;;;;6.13;2.20;;;;;;;;;;4931968;29;20091;-82
2022/05/12 12:46:20;;;;;;;5.47;2.38;;;;;;;;;;4917855;29;20040;-81
2022/05/12 12:48:54;;;;;;;3.20;2.05;;;;;;;;;;4914161;29;20051;-82
2022/05/12 12:51:28;;;;;;;4.20;2.30;;;;;;;;;;4933260;29;20036;-82
2022/05/12 12:57:05;;;;;;;4.63;2.00;;;;;;;;;;4941609;29;20051;-82
2022/05/12 12:59:35;;;;;;;4.63;2.10;;;;;;;;;;4921471;29;20043;-82
2022/05/12 13:02:03;;;;;;;4.10;2.43;;;;;;;;;;4917839;29;20517;-82
2022/05/12 13:04:33;;;;;;;3.40;2.55;;;;;;;;;;4918163;29;20458;-82
2022/05/12 13:07:02;;;;;;;4.35;2.35;;;;;;;;;;4927327;29;20112;-81
2022/05/12 13:09:35;;;;;;;6.60;2.60;;;;;;;;;;4933143;29;20036;-81
2022/05/12 13:12:17;;;;;;;4.40;2.15;;;;;;;;;;4914748;29;20397;-81
2022/05/12 13:14:45;;;;;;;3.65;2.30;;;;;;;;;;4898545;29;20349;-82
2022/05/12 13:17:49;;;;;;;5.53;2.90;;;;;;;;;;4932820;29;20059;-83
2022/05/12 13:20:22;;;;;;;3.25;2.33;;;;;;;;;;4929896;29;20097;-81
2022/05/12 13:22:55;;;;;;;3.17;2.05;;;;;;;;;;4931768;29;20087;-82
2022/05/12 13:25:27;;;;;;;2.47;2.25;;;;;;;;;;4935163;29;20514;-81
2022/05/12 13:27:55;;;;;;;2.20;2.00;;;;;;;;;;4918242;29;20035;-82
2022/05/12 13:30:35;;;;;;;3.13;2.40;;;;;;;;;;4937454;29;20036;-80
2022/05/12 13:33:10;;;;;;;7.63;2.40;;;;;;;;;;4946565;29;20051;-81
2022/05/12 13:35:39;;;;;;;6.05;2.10;;;;;;;;;;4906884;29;20054;-80
2022/05/12 13:38:15;;;;;;;3.65;2.17;;;;;;;;;;4935279;29;20042;-82
2022/05/12 13:40:45;;;;;;;6.75;2.30;;;;;;;;;;4916149;29;20518;-81
2022/05/12 13:43:15;;;;;;;2.58;2.10;;;;;;;;;;4915032;29;20106;-83
2022/05/12 13:45:44;;;;;;;3.60;2.00;;;;;;;;;;4938403;29;20397;-82
2022/05/12 13:48:22;;;;;;;4.63;2.30;;;;;;;;;;4936338;29;20048;-83
2022/05/12 13:50:51;;;;;;;2.42;2.15;;;;;;;;;;4950509;23;20086;-79
2022/05/12 13:53:30;;;;;;;2.77;2.10;;;;;;;;;;4932064;29;20417;-79
2022/05/12 13:56:08;;;;;;;8.60;2.13;;;;;;;;;;4941765;29;20070;-80
2022/05/12 13:58:44;;;;;;;4.57;2.03;;;;;;;;;;4937351;29;20334;-80
2022/05/12 14:01:11;;;;;;;2.78;2.42;;;;;;;;;;4935639;29;20058;-82
2022/05/12 14:03:39;;;;;;;3.25;2.08;;;;;;;;;;4901061;29;20056;-79
2022/05/12 14:06:09;;;;;;;4.65;2.45;;;;;;;;;;4931043;29;20059;-80
2022/05/12 14:08:37;;;;;;;2.58;1.80;;;;;;;;;;4932182;29;20044;-79
2022/05/12 14:11:05;;;;;;;5.40;2.08;;;;;;;;;;4939458;29;20043;-80
2022/05/12 14:19:19;;;;;;;2.35;1.92;;;;;;;;;;4934302;29;20107;-85
2022/05/12 14:21:49;;;;;;;5.57;2.03;;;;;;;;;;4903243;29;20056;-80
2022/05/12 14:24:18;;;;;;;2.83;2.20;;;;;;;;;;4916282;29;20078;-80
2022/05/12 14:26:45;;;;;;;4.40;2.10;;;;;;;;;;4930357;29;20421;-79
2022/05/12 14:29:13;;;;;;;4.60;1.90;;;;;;;;;;4910379;29;20087;-79
2022/05/12 14:31:41;;;;;;;4.65;2.20;;;;;;;;;;4922437;29;20432;-80
2022/05/12 14:34:09;;;;;;;3.97;1.90;;;;;;;;;;4931015;29;20040;-82
2022/05/12 14:36:36;;;;;;;3.33;2.20;;;;;;;;;;4929305;29;20055;-80
2022/05/12 14:39:07;;;;;;;2.00;1.90;;;;;;;;;;4931614;29;20055;-80
2022/05/12 14:41:34;;;;;;;;;;;;;;;;;;4909815;29;20194;-79
2022/05/12 14:44:02;;;;;;;3.72;2.17;;;;;;;;;;4937549;29;19926;-79
2022/05/12 14:46:33;;;;;;;2.70;1.90;;;;;;;;;;4926296;29;20373;-78
2022/05/12 14:49:01;;;;;;;2.13;1.90;;;;;;;;;;4924542;29;20395;-79
2022/05/12 14:51:29;;;;;;;3.72;1.95;;;;;;;;;;4936751;29;20434;-80
2022/05/12 14:53:56;;;;;;;4.15;1.98;;;;;;;;;;4922474;29;20044;-80
2022/05/12 14:56:23;;;;;;;4.05;2.17;;;;;;;;;;4918725;29;20059;-80
2022/05/12 14:58:51;;;;;;;4.63;2.05;;;;;;;;;;4942612;29;20036;-79
2022/05/12 15:01:25;;;;;;;2.50;2.30;;;;;;;;;;4929104;29;20055;-80
2022/05/12 15:03:55;;;;;;;3.05;2.13;;;;;;;;;;4930534;29;20405;-79
2022/05/12 15:06:23;;;;;;;5.80;2.53;;;;;;;;;;4912432;29;20039;-78
2022/05/12 15:08:50;;;;;;;4.65;2.00;;;;;;;;;;4897081;29;20136;-79
2022/05/12 15:11:18;;;;;;;3.17;2.20;;;;;;;;;;4926518;29;20058;-79
2022/05/12 15:13:45;;;;;;;3.88;2.10;;;;;;;;;;4911229;29;20099;-79
2022/05/12 15:16:13;;;;;;;2.13;1.92;;;;;;;;;;4926309;29;20043;-80
2022/05/12 15:18:41;;;;;;;6.03;2.20;;;;;;;;;;4923702;29;20086;-78
2022/05/12 15:21:09;;;;;;;2.63;2.28;;;;;;;;;;4922378;28;20054;-79
2022/05/12 15:23:36;;;;;;;3.08;2.10;;;;;;;;;;4907578;29;20142;-79
2022/05/12 15:26:09;;;;;;;7.70;2.17;;;;;;;;;;4925211;29;20130;-79
2022/05/12 15:28:37;;;;;;;2.90;2.30;;;;;;;;;;4889905;29;20060;-79
2022/05/12 15:31:06;;;;;;;3.30;2.42;;;;;;;;;;4906620;29;20052;-79